DXNG Airport Information

Runway Information
Runway 03 Length 8202 ft width 148 ft
Elevation 1499 ft Threshold ft Heading 22
Runway 21 Length 8202 ft Width 148 ft
Elevation 1515 ft Threshold ft Heading 202
Airport Frequencies
Type A/G Name A/G VOICE Frequency 122.6 MHZ
Type AFIS Name AFIS Frequency 658.6 MHZ
Type TWR Name TWR Frequency 118.3 MHZ
Airport Navaids
Type VOR-DME Name Niamtougou Frequency 113200 KHZ
Airport Weather Information & NOTAM
ADDS - METARS form results

(0831 UTC 27 June 2022)
Data provider http://aviationweather.gov/metar/data/
 
METAR text: DXNG 270800Z 04002KT 9999 FEW007 23/22 Q1017
Conditions at: DXNG (NAIMTOUGOU(CIV/M, TG) observed 0800 UTC 27 June 2022
Temperature: 23.0°C (73°F)
Dewpoint: 22.0°C (72°F) [RH = 94%]
Pressure (altimeter): 30.03 inches Hg (1017.0 mb)
Winds: from the NE (40 degrees) at 2 MPH (2 knots; 1.0 m/s)
Visibility: 6 or more miles (10+ km)
Ceiling: at least 12,000 feet AGL
Clouds: few clouds at 700 feet AGL
Weather: no significant weather observed at this time

Forecast for: DXNG (NAIMTOUGOU(CIV/M, TG)
Text: TAF DXNG 270500Z 2706/2806 VRB05KT 9999 FEW007
Forecast period: 0600 UTC 27 June 2022 to 0600 UTC 28 June 2022
Forecast type: FROM: standard forecast or significant change
Winds: variable direction winds at 6 MPH (5 knots; 2.6 m/s)
Visibility: 6 or more miles (10+ km)
Ceiling: at least 12,000 feet AGL
Clouds: few clouds at 700 feet AGL
Weather: no significant weather forecast for this period